PWSweather.com
Personal Weather Stations
Station Observations
KILMORRI1
Goose Lake, Morris, IL 60450

Goose LakeMorris, IL 60450

Lat: 41.34, Lon: -88.3

Elevation: 523

Station Type:

www.gooselakeweather.com

High Low Average
Temperature 83.5°F28.6°F 61.9°F16.6°F 73.6°F23.1°F
Dew Point 77.2°F25.1°F 60.5°F15.8°F 69.4°F20.8°F
Winds 8.1 mph WSW13.0 mph WSW Calm Calm 1.9 mph 3.1 mph
Wind Gusts 11.5 mph18.5 mph -- 3.5 mph5.6 mph
Humidity 95% 77% 87%
Pressure 30.09 in1019.00 in 29.90 in1012.50 in -
Precipitation 0.03 in0.80 in - -
Hour Temp Dew Point Humidity Winds Wind Gusts Pressure Precip Precip Rate Daily Precip Total
12:00 AM 65.1°F18.4°C 62.1°F16.7°C 90% 1.2 mph SSE1.9 kmh SSE 3.5 mph5.6 kmh 30.08 in1018.6 mb - 0.00 in0.0 mm 0.00 in0.0 mm
12:10 AM 65.4°F18.6°C 62.4°F16.9°C 90% 2.3 mph SSE3.7 kmh SSE 4.6 mph7.4 kmh 30.07 in1018.3 mb - 0.00 in0.0 mm 0.00 in0.0 mm
12:20 AM 65.4°F18.6°C 61.8°F16.6°C 88% 2.3 mph SE3.7 kmh SE 3.5 mph5.6 kmh 30.07 in1018.3 mb - 0.00 in0.0 mm 0.00 in0.0 mm
12:30 AM 65.5°F18.6°C 61.5°F16.4°C 87% 1.2 mph S1.9 kmh S 3.5 mph5.6 kmh 30.07 in1018.3 mb - 0.00 in0.0 mm 0.00 in0.0 mm
12:40 AM 65.0°F18.3°C 61.4°F16.3°C 88% 1.2 mph S1.9 kmh S 2.3 mph3.7 kmh 30.07 in1018.3 mb - 0.00 in0.0 mm 0.00 in0.0 mm
12:50 AM 64.6°F18.1°C 61.3°F16.3°C 89% 2.3 mph SSE3.7 kmh SSE 3.5 mph5.6 kmh 30.07 in1018.3 mb - 0.00 in0.0 mm 0.00 in0.0 mm
01:00 AM 64.6°F18.1°C 61.0°F16.1°C 88% Calm Calm 1.2 mph1.9 kmh 30.07 in1018.3 mb - 0.00 in0.0 mm 0.00 in0.0 mm
01:10 AM 64.4°F18.0°C 61.1°F16.2°C 89% 1.2 mph SSE1.9 kmh SSE 2.3 mph3.7 kmh 30.07 in1018.3 mb - 0.00 in0.0 mm 0.00 in0.0 mm
01:20 AM 63.9°F17.7°C 60.9°F16.1°C 90% 1.2 mph SSE1.9 kmh SSE 3.5 mph5.6 kmh 30.08 in1018.6 mb - 0.00 in0.0 mm 0.00 in0.0 mm
01:30 AM 63.7°F17.6°C 61.0°F16.1°C 91% 1.2 mph SSE1.9 kmh SSE 4.6 mph7.4 kmh 30.07 in1018.3 mb - 0.00 in0.0 mm 0.00 in0.0 mm
01:40 AM 63.8°F17.7°C 61.1°F16.2°C 91% 1.2 mph SSE1.9 kmh SSE 3.5 mph5.6 kmh 30.07 in1018.3 mb - 0.00 in0.0 mm 0.00 in0.0 mm
01:50 AM 63.8°F17.7°C 61.1°F16.2°C 91% 1.2 mph SSE1.9 kmh SSE 2.3 mph3.7 kmh 30.08 in1018.6 mb - 0.00 in0.0 mm 0.00 in0.0 mm
02:00 AM 63.7°F17.6°C 61.3°F16.3°C 92% 1.2 mph SSE1.9 kmh SSE 2.3 mph3.7 kmh 30.09 in1019.0 mb - 0.00 in0.0 mm 0.00 in0.0 mm
02:10 AM 63.4°F17.4°C 61.0°F16.1°C 92% Calm Calm 2.3 mph3.7 kmh 30.09 in1019.0 mb - 0.00 in0.0 mm 0.00 in0.0 mm
02:20 AM 63.3°F17.4°C 61.2°F16.2°C 93% Calm Calm -- 30.09 in1019.0 mb - 0.00 in0.0 mm 0.00 in0.0 mm
02:30 AM 62.9°F17.2°C 61.1°F16.2°C 94% Calm Calm -- 30.09 in1019.0 mb - 0.00 in0.0 mm 0.00 in0.0 mm
02:40 AM 62.7°F17.1°C 60.9°F16.1°C 94% Calm Calm 1.2 mph1.9 kmh 30.08 in1018.6 mb - 0.00 in0.0 mm 0.00 in0.0 mm
02:50 AM 62.6°F17.0°C 60.8°F16.0°C 94% 1.2 mph SSE1.9 kmh SSE 2.3 mph3.7 kmh 30.08 in1018.6 mb - 0.00 in0.0 mm 0.00 in0.0 mm
03:00 AM 62.3°F16.8°C 60.6°F15.9°C 94% Calm Calm 1.2 mph1.9 kmh 30.07 in1018.3 mb - 0.00 in0.0 mm 0.00 in0.0 mm
03:10 AM 62.4°F16.9°C 60.7°F15.9°C 94% Calm Calm -- 30.07 in1018.3 mb - 0.00 in0.0 mm 0.00 in0.0 mm
03:20 AM 62.4°F16.9°C 60.7°F15.9°C 94% Calm Calm -- 30.07 in1018.3 mb - 0.00 in0.0 mm 0.00 in0.0 mm
03:30 AM 62.3°F16.8°C 60.6°F15.9°C 94% 1.2 mph SSE1.9 kmh SSE 2.3 mph3.7 kmh 30.07 in1018.3 mb - 0.00 in0.0 mm 0.00 in0.0 mm
03:40 AM 61.9°F16.6°C 60.5°F15.8°C 95% 1.2 mph SSE1.9 kmh SSE 2.3 mph3.7 kmh 30.06 in1017.9 mb - 0.00 in0.0 mm 0.00 in0.0 mm
03:50 AM 61.9°F16.6°C 60.5°F15.8°C 95% 1.2 mph SSE1.9 kmh SSE 3.5 mph5.6 kmh 30.06 in1017.9 mb - 0.00 in0.0 mm 0.00 in0.0 mm
04:00 AM 62.5°F16.9°C 61.1°F16.2°C 95% 1.2 mph SSE1.9 kmh SSE 2.3 mph3.7 kmh 30.06 in1017.9 mb - 0.00 in0.0 mm 0.00 in0.0 mm
04:10 AM 63.8°F17.7°C 62.1°F16.7°C 94% Calm Calm -- 30.06 in1017.9 mb - 0.00 in0.0 mm 0.00 in0.0 mm
04:20 AM 64.4°F18.0°C 62.1°F16.7°C 92% Calm Calm 3.5 mph5.6 kmh 30.06 in1017.9 mb - 0.00 in0.0 mm 0.00 in0.0 mm
04:30 AM 64.4°F18.0°C 62.0°F16.7°C 92% 2.3 mph SSE3.7 kmh SSE 3.5 mph5.6 kmh 30.06 in1017.9 mb - 0.00 in0.0 mm 0.00 in0.0 mm
04:40 AM 64.4°F18.0°C 61.7°F16.5°C 91% 1.2 mph SSE1.9 kmh SSE 3.5 mph5.6 kmh 30.06 in1017.9 mb - 0.00 in0.0 mm 0.00 in0.0 mm
04:50 AM 64.2°F17.9°C 61.5°F16.4°C 91% 1.2 mph SSE1.9 kmh SSE 2.3 mph3.7 kmh 30.05 in1017.6 mb - 0.00 in0.0 mm 0.00 in0.0 mm
05:00 AM 63.9°F17.7°C 61.5°F16.4°C 92% 2.3 mph SSE3.7 kmh SSE 3.5 mph5.6 kmh 30.05 in1017.6 mb - 0.00 in0.0 mm 0.00 in0.0 mm
05:10 AM 64.1°F17.8°C 61.7°F16.5°C 92% 2.3 mph SSE3.7 kmh SSE 3.5 mph5.6 kmh 30.05 in1017.6 mb - 0.00 in0.0 mm 0.00 in0.0 mm
05:20 AM 64.6°F18.1°C 61.9°F16.6°C 91% 1.2 mph SSE1.9 kmh SSE 2.3 mph3.7 kmh 30.05 in1017.6 mb - 0.00 in0.0 mm 0.00 in0.0 mm
05:30 AM 64.1°F17.8°C 61.7°F16.5°C 92% Calm Calm 1.2 mph1.9 kmh 30.05 in1017.6 mb - 0.00 in0.0 mm 0.00 in0.0 mm
05:40 AM 63.4°F17.4°C 61.3°F16.3°C 93% Calm Calm -- 30.06 in1017.9 mb - 0.00 in0.0 mm 0.00 in0.0 mm
05:50 AM 62.8°F17.1°C 61.1°F16.2°C 94% Calm Calm -- 30.07 in1018.3 mb - 0.00 in0.0 mm 0.00 in0.0 mm
06:00 AM 62.5°F16.9°C 61.1°F16.2°C 95% 2.3 mph SSE3.7 kmh SSE 3.5 mph5.6 kmh 30.05 in1017.6 mb - 0.00 in0.0 mm 0.00 in0.0 mm
06:10 AM 62.4°F16.9°C 61.0°F16.1°C 95% 1.2 mph SSE1.9 kmh SSE 2.3 mph3.7 kmh 30.05 in1017.6 mb - 0.00 in0.0 mm 0.00 in0.0 mm
06:20 AM 63.2°F17.3°C 61.7°F16.5°C 95% 1.2 mph SSE1.9 kmh SSE 2.3 mph3.7 kmh 30.05 in1017.6 mb - 0.00 in0.0 mm 0.00 in0.0 mm
06:30 AM 64.3°F17.9°C 62.9°F17.2°C 95% 1.2 mph SSE1.9 kmh SSE 2.3 mph3.7 kmh 30.05 in1017.6 mb - 0.00 in0.0 mm 0.00 in0.0 mm
06:40 AM 65.2°F18.4°C 63.2°F17.3°C 93% 1.2 mph SSE1.9 kmh SSE 3.5 mph5.6 kmh 30.05 in1017.6 mb - 0.00 in0.0 mm 0.00 in0.0 mm
06:50 AM 66.4°F19.1°C 63.3°F17.4°C 90% 2.3 mph S3.7 kmh S 5.8 mph9.3 kmh 30.05 in1017.6 mb - 0.00 in0.0 mm 0.00 in0.0 mm
07:00 AM 67.4°F19.7°C 63.4°F17.4°C 87% 4.6 mph S7.4 kmh S 6.9 mph11.1 kmh 30.04 in1017.3 mb - 0.00 in0.0 mm 0.00 in0.0 mm
07:10 AM 68.4°F20.2°C 64.1°F17.8°C 86% 3.5 mph S5.6 kmh S 6.9 mph11.1 kmh 30.05 in1017.6 mb - 0.00 in0.0 mm 0.00 in0.0 mm
07:20 AM 69.3°F20.7°C 64.9°F18.3°C 86% 3.5 mph S5.6 kmh S 3.5 mph5.6 kmh 30.04 in1017.3 mb - 0.00 in0.0 mm 0.00 in0.0 mm
07:30 AM 70.0°F21.1°C 64.2°F17.9°C 82% 1.2 mph SSE1.9 kmh SSE 3.5 mph5.6 kmh 30.05 in1017.6 mb - 0.00 in0.0 mm 0.00 in0.0 mm
07:40 AM 70.4°F21.3°C 65.0°F18.3°C 83% 2.3 mph SSW3.7 kmh SSW 4.6 mph7.4 kmh 30.05 in1017.6 mb - 0.00 in0.0 mm 0.00 in0.0 mm
07:50 AM 70.5°F21.4°C 65.1°F18.4°C 83% 2.3 mph S3.7 kmh S 3.5 mph5.6 kmh 30.05 in1017.6 mb - 0.00 in0.0 mm 0.00 in0.0 mm
08:00 AM 70.4°F21.3°C 65.0°F18.3°C 83% 1.2 mph SSW1.9 kmh SSW 2.3 mph3.7 kmh 30.05 in1017.6 mb - 0.00 in0.0 mm 0.00 in0.0 mm
08:10 AM 71.0°F21.7°C 65.2°F18.4°C 82% Calm Calm 2.3 mph3.7 kmh 30.05 in1017.6 mb - 0.00 in0.0 mm 0.00 in0.0 mm
08:20 AM 71.0°F21.7°C 65.6°F18.7°C 83% 2.3 mph S3.7 kmh S 3.5 mph5.6 kmh 30.04 in1017.3 mb - 0.00 in0.0 mm 0.00 in0.0 mm
08:30 AM 71.3°F21.8°C 66.2°F19.0°C 84% 1.2 mph SSE1.9 kmh SSE 1.2 mph1.9 kmh 30.04 in1017.3 mb - 0.00 in0.0 mm 0.00 in0.0 mm
08:40 AM 72.2°F22.3°C 66.4°F19.1°C 82% 2.3 mph S3.7 kmh S 3.5 mph5.6 kmh 30.04 in1017.3 mb - 0.00 in0.0 mm 0.00 in0.0 mm
08:50 AM 72.6°F22.6°C 66.1°F18.9°C 80% 2.3 mph SSW3.7 kmh SSW 6.9 mph11.1 kmh 30.04 in1017.3 mb - 0.00 in0.0 mm 0.00 in0.0 mm
09:00 AM 72.8°F22.7°C 66.6°F19.2°C 81% 3.5 mph S5.6 kmh S 4.6 mph7.4 kmh 30.04 in1017.3 mb - 0.00 in0.0 mm 0.00 in0.0 mm
09:10 AM 73.1°F22.8°C 67.0°F19.4°C 81% 1.2 mph S1.9 kmh S 2.3 mph3.7 kmh 30.04 in1017.3 mb - 0.00 in0.0 mm 0.00 in0.0 mm
09:20 AM 73.7°F23.2°C 67.9°F19.9°C 82% 2.3 mph S3.7 kmh S 3.5 mph5.6 kmh 30.04 in1017.3 mb - 0.00 in0.0 mm 0.00 in0.0 mm
09:30 AM 74.4°F23.6°C 68.2°F20.1°C 81% 1.2 mph SW1.9 kmh SW 2.3 mph3.7 kmh 30.04 in1017.3 mb - 0.00 in0.0 mm 0.00 in0.0 mm
09:40 AM 74.1°F23.4°C 67.5°F19.7°C 80% 4.6 mph SSW7.4 kmh SSW 6.9 mph11.1 kmh 30.04 in1017.3 mb - 0.00 in0.0 mm 0.00 in0.0 mm
09:50 AM 74.4°F23.6°C 67.8°F19.9°C 80% 3.5 mph S5.6 kmh S 4.6 mph7.4 kmh 30.04 in1017.3 mb - 0.00 in0.0 mm 0.00 in0.0 mm
10:00 AM 76.0°F24.4°C 68.6°F20.3°C 78% 4.6 mph SSW7.4 kmh SSW 8.1 mph13.0 kmh 30.03 in1016.9 mb - 0.00 in0.0 mm 0.00 in0.0 mm
10:10 AM 75.6°F24.2°C 68.7°F20.4°C 79% 4.6 mph SSW7.4 kmh SSW 8.1 mph13.0 kmh 30.03 in1016.9 mb - 0.00 in0.0 mm 0.00 in0.0 mm
10:20 AM 76.5°F24.7°C 69.8°F21.0°C 80% 3.5 mph SSE5.6 kmh SSE 6.9 mph11.1 kmh 30.03 in1016.9 mb - 0.00 in0.0 mm 0.00 in0.0 mm
10:30 AM 78.3°F25.7°C 71.2°F21.8°C 79% 4.6 mph SW7.4 kmh SW 5.8 mph9.3 kmh 30.04 in1017.3 mb - 0.00 in0.0 mm 0.00 in0.0 mm
10:40 AM 77.3°F25.2°C 69.5°F20.8°C 77% 2.3 mph SSW3.7 kmh SSW 3.5 mph5.6 kmh 30.04 in1017.3 mb - 0.00 in0.0 mm 0.00 in0.0 mm
10:50 AM 78.6°F25.9°C 70.8°F21.6°C 77% 3.5 mph S5.6 kmh S 5.8 mph9.3 kmh 30.03 in1016.9 mb - 0.00 in0.0 mm 0.00 in0.0 mm
11:00 AM 79.1°F26.2°C 72.0°F22.2°C 79% 1.2 mph SW1.9 kmh SW 3.5 mph5.6 kmh 30.03 in1016.9 mb - 0.00 in0.0 mm 0.00 in0.0 mm
11:10 AM 78.7°F25.9°C 71.7°F22.1°C 79% 2.3 mph SSE3.7 kmh SSE 5.8 mph9.3 kmh 30.03 in1016.9 mb - 0.00 in0.0 mm 0.00 in0.0 mm
11:20 AM 78.9°F26.1°C 71.1°F21.7°C 77% 3.5 mph SSW5.6 kmh SSW 5.8 mph9.3 kmh 30.02 in1016.6 mb - 0.00 in0.0 mm 0.00 in0.0 mm
11:30 AM 79.4°F26.3°C 71.9°F22.2°C 78% 4.6 mph SSW7.4 kmh SSW 3.5 mph5.6 kmh 30.01 in1016.3 mb - 0.00 in0.0 mm 0.00 in0.0 mm
11:40 AM 79.3°F26.3°C 72.6°F22.6°C 80% 3.5 mph S5.6 kmh S 5.8 mph9.3 kmh 30.01 in1016.3 mb - 0.00 in0.0 mm 0.00 in0.0 mm
11:50 AM 79.4°F26.3°C 72.7°F22.6°C 80% 4.6 mph SW7.4 kmh SW 3.5 mph5.6 kmh 30.01 in1016.3 mb - 0.00 in0.0 mm 0.00 in0.0 mm
12:00 PM 79.8°F26.6°C 73.0°F22.8°C 80% 2.3 mph SW3.7 kmh SW 3.5 mph5.6 kmh 30.01 in1016.3 mb - 0.00 in0.0 mm 0.00 in0.0 mm
12:10 PM 80.6°F27.0°C 73.1°F22.8°C 78% 4.6 mph S7.4 kmh S 6.9 mph11.1 kmh 30.01 in1016.3 mb - 0.00 in0.0 mm 0.00 in0.0 mm
12:20 PM 81.2°F27.3°C 73.7°F23.2°C 78% 3.5 mph SSW5.6 kmh SSW 6.9 mph11.1 kmh 30.01 in1016.3 mb - 0.00 in0.0 mm 0.00 in0.0 mm
12:30 PM 81.2°F27.3°C 74.0°F23.3°C 79% 5.8 mph SSW9.3 kmh SSW 6.9 mph11.1 kmh 30.01 in1016.3 mb - 0.00 in0.0 mm 0.00 in0.0 mm
12:40 PM 80.9°F27.2°C 74.1°F23.4°C 80% 2.3 mph S3.7 kmh S 4.6 mph7.4 kmh 30.00 in1015.9 mb - 0.00 in0.0 mm 0.00 in0.0 mm
12:50 PM 80.4°F26.9°C 73.6°F23.1°C 80% 3.5 mph S5.6 kmh S 4.6 mph7.4 kmh 30.00 in1015.9 mb - 0.00 in0.0 mm 0.00 in0.0 mm
01:00 PM 82.0°F27.8°C 75.2°F24.0°C 80% 1.2 mph SSE1.9 kmh SSE 4.6 mph7.4 kmh 29.99 in1015.6 mb - 0.00 in0.0 mm 0.00 in0.0 mm
01:10 PM 81.6°F27.6°C 75.2°F24.0°C 81% 2.3 mph S3.7 kmh S 5.8 mph9.3 kmh 29.99 in1015.6 mb - 0.00 in0.0 mm 0.00 in0.0 mm
01:20 PM 81.9°F27.7°C 75.9°F24.4°C 82% 2.3 mph S3.7 kmh S 3.5 mph5.6 kmh 29.99 in1015.6 mb - 0.00 in0.0 mm 0.00 in0.0 mm
01:30 PM 82.1°F27.8°C 75.3°F24.1°C 80% 4.6 mph SSW7.4 kmh SSW 5.8 mph9.3 kmh 29.99 in1015.6 mb - 0.00 in0.0 mm 0.00 in0.0 mm
01:40 PM 83.3°F28.5°C 76.5°F24.7°C 80% 1.2 mph S1.9 kmh S 3.5 mph5.6 kmh 29.99 in1015.6 mb - 0.00 in0.0 mm 0.00 in0.0 mm
01:50 PM 83.5°F28.6°C 76.3°F24.6°C 79% 2.3 mph SSW3.7 kmh SSW 4.6 mph7.4 kmh 29.99 in1015.6 mb - 0.00 in0.0 mm 0.00 in0.0 mm
02:00 PM 83.0°F28.3°C 76.6°F24.8°C 81% 1.2 mph SE1.9 kmh SE 4.6 mph7.4 kmh 29.98 in1015.2 mb - 0.00 in0.0 mm 0.00 in0.0 mm
02:10 PM 82.4°F28.0°C 74.8°F23.8°C 78% 1.2 mph S1.9 kmh S 3.5 mph5.6 kmh 29.98 in1015.2 mb - 0.00 in0.0 mm 0.00 in0.0 mm
02:20 PM 82.8°F28.2°C 75.2°F24.0°C 78% 2.3 mph S3.7 kmh S 3.5 mph5.6 kmh 29.98 in1015.2 mb - 0.00 in0.0 mm 0.00 in0.0 mm
02:30 PM 82.4°F28.0°C 74.9°F23.8°C 78% 2.3 mph S3.7 kmh S 3.5 mph5.6 kmh 29.98 in1015.2 mb - 0.00 in0.0 mm 0.00 in0.0 mm
02:40 PM 83.0°F28.3°C 75.8°F24.3°C 79% 2.3 mph S3.7 kmh S 3.5 mph5.6 kmh 29.98 in1015.2 mb - 0.00 in0.0 mm 0.00 in0.0 mm
02:50 PM 82.3°F27.9°C 74.8°F23.8°C 78% 2.3 mph S3.7 kmh S 3.5 mph5.6 kmh 29.98 in1015.2 mb - 0.00 in0.0 mm 0.00 in0.0 mm
03:00 PM 82.1°F27.8°C 74.5°F23.6°C 78% 2.3 mph S3.7 kmh S 3.5 mph5.6 kmh 29.97 in1014.9 mb - 0.00 in0.0 mm 0.00 in0.0 mm
03:10 PM 81.9°F27.7°C 76.2°F24.6°C 83% Calm Calm 1.2 mph1.9 kmh 29.97 in1014.9 mb - 0.00 in0.0 mm 0.00 in0.0 mm
03:20 PM 81.7°F27.6°C 74.9°F23.8°C 80% 2.3 mph S3.7 kmh S 4.6 mph7.4 kmh 29.97 in1014.9 mb - 0.00 in0.0 mm 0.00 in0.0 mm
03:30 PM 81.6°F27.6°C 75.9°F24.4°C 83% 2.3 mph S3.7 kmh S 4.6 mph7.4 kmh 29.96 in1014.6 mb - 0.00 in0.0 mm 0.00 in0.0 mm
03:40 PM 81.5°F27.5°C 74.8°F23.8°C 80% 1.2 mph S1.9 kmh S 2.3 mph3.7 kmh 29.96 in1014.6 mb - 0.00 in0.0 mm 0.00 in0.0 mm
03:50 PM 81.7°F27.6°C 76.0°F24.4°C 83% 1.2 mph S1.9 kmh S 3.5 mph5.6 kmh 29.95 in1014.2 mb - 0.00 in0.0 mm 0.00 in0.0 mm
04:00 PM 81.7°F27.6°C 76.0°F24.4°C 83% 2.3 mph S3.7 kmh S 3.5 mph5.6 kmh 29.95 in1014.2 mb - 0.00 in0.0 mm 0.00 in0.0 mm
04:10 PM 81.7°F27.6°C 76.1°F24.5°C 83% 1.2 mph S1.9 kmh S 3.5 mph5.6 kmh 29.95 in1014.2 mb - 0.00 in0.0 mm 0.00 in0.0 mm
04:20 PM 81.8°F27.7°C 76.1°F24.5°C 83% 1.2 mph S1.9 kmh S 2.3 mph3.7 kmh 29.95 in1014.2 mb - 0.00 in0.0 mm 0.00 in0.0 mm
04:30 PM 82.0°F27.8°C 76.4°F24.7°C 83% 1.2 mph S1.9 kmh S 3.5 mph5.6 kmh 29.95 in1014.2 mb - 0.00 in0.0 mm 0.00 in0.0 mm
04:40 PM 81.6°F27.6°C 76.3°F24.6°C 84% Calm Calm 1.2 mph1.9 kmh 29.94 in1013.9 mb - 0.00 in0.0 mm 0.00 in0.0 mm
04:50 PM 81.8°F27.7°C 77.2°F25.1°C 86% Calm Calm 3.5 mph5.6 kmh 29.94 in1013.9 mb - 0.00 in0.0 mm 0.00 in0.0 mm
05:00 PM 81.5°F27.5°C 76.5°F24.7°C 85% 2.3 mph S3.7 kmh S 3.5 mph5.6 kmh 29.93 in1013.5 mb - 0.00 in0.0 mm 0.00 in0.0 mm
05:10 PM 81.9°F27.7°C 76.9°F24.9°C 85% 2.3 mph SSE3.7 kmh SSE 3.5 mph5.6 kmh 29.93 in1013.5 mb - 0.00 in0.0 mm 0.00 in0.0 mm
05:20 PM 81.9°F27.7°C 76.2°F24.6°C 83% 2.3 mph ESE3.7 kmh ESE 3.5 mph5.6 kmh 29.93 in1013.5 mb - 0.00 in0.0 mm 0.00 in0.0 mm
05:30 PM 81.5°F27.5°C 75.8°F24.3°C 83% 3.5 mph ESE5.6 kmh ESE 3.5 mph5.6 kmh 29.92 in1013.2 mb - 0.00 in0.0 mm 0.00 in0.0 mm
05:40 PM 81.2°F27.3°C 75.9°F24.4°C 84% 3.5 mph SE5.6 kmh SE 3.5 mph5.6 kmh 29.92 in1013.2 mb - 0.00 in0.0 mm 0.00 in0.0 mm
05:50 PM 81.1°F27.3°C 76.5°F24.7°C 86% 2.3 mph SE3.7 kmh SE 3.5 mph5.6 kmh 29.91 in1012.9 mb - 0.00 in0.0 mm 0.00 in0.0 mm
06:00 PM 80.9°F27.2°C 76.3°F24.6°C 86% 2.3 mph ESE3.7 kmh ESE 3.5 mph5.6 kmh 29.91 in1012.9 mb - 0.00 in0.0 mm 0.00 in0.0 mm
06:10 PM 80.5°F26.9°C 76.0°F24.4°C 86% 3.5 mph ESE5.6 kmh ESE 6.9 mph11.1 kmh 29.90 in1012.5 mb - 0.00 in0.0 mm 0.00 in0.0 mm
06:20 PM 80.3°F26.8°C 75.7°F24.3°C 86% 2.3 mph SE3.7 kmh SE 3.5 mph5.6 kmh 29.90 in1012.5 mb - 0.00 in0.0 mm 0.00 in0.0 mm
06:30 PM 79.9°F26.6°C 75.7°F24.3°C 87% 3.5 mph ESE5.6 kmh ESE 4.6 mph7.4 kmh 29.90 in1012.5 mb - 0.00 in0.0 mm 0.00 in0.0 mm
06:40 PM 79.6°F26.4°C 76.1°F24.5°C 89% Calm Calm 2.3 mph3.7 kmh 29.90 in1012.5 mb - 0.00 in0.0 mm 0.00 in0.0 mm
06:50 PM 79.7°F26.5°C 76.2°F24.6°C 89% Calm Calm 1.2 mph1.9 kmh 29.90 in1012.5 mb - 0.00 in0.0 mm 0.00 in0.0 mm
07:00 PM 80.0°F26.7°C 75.8°F24.3°C 87% Calm Calm -- 29.90 in1012.5 mb - 0.00 in0.0 mm 0.00 in0.0 mm
07:10 PM 79.7°F26.5°C 75.5°F24.2°C 87% Calm Calm -- 29.91 in1012.9 mb - 0.00 in0.0 mm 0.00 in0.0 mm
07:20 PM 79.0°F26.1°C 75.4°F24.1°C 89% Calm Calm -- 29.91 in1012.9 mb - 0.00 in0.0 mm 0.00 in0.0 mm
07:30 PM 78.5°F25.8°C 75.3°F24.1°C 90% Calm Calm 1.2 mph1.9 kmh 29.91 in1012.9 mb - 0.00 in0.0 mm 0.00 in0.0 mm
07:40 PM 78.1°F25.6°C 74.6°F23.7°C 89% Calm Calm -- 29.91 in1012.9 mb - 0.00 in0.0 mm 0.00 in0.0 mm
07:50 PM 77.7°F25.4°C 74.6°F23.7°C 90% Calm Calm -- 29.91 in1012.9 mb - 0.00 in0.0 mm 0.00 in0.0 mm
08:00 PM 77.1°F25.1°C 74.3°F23.5°C 91% Calm Calm -- 29.91 in1012.9 mb - 0.00 in0.0 mm 0.00 in0.0 mm
08:10 PM 76.7°F24.8°C 74.2°F23.4°C 92% Calm Calm -- 29.92 in1013.2 mb - 0.00 in0.0 mm 0.00 in0.0 mm
08:20 PM 76.5°F24.7°C 74.0°F23.3°C 92% Calm Calm -- 29.92 in1013.2 mb - 0.00 in0.0 mm 0.00 in0.0 mm
08:30 PM 76.2°F24.6°C 74.0°F23.3°C 93% Calm Calm -- 29.92 in1013.2 mb - 0.00 in0.0 mm 0.00 in0.0 mm
08:40 PM 76.1°F24.5°C 74.0°F23.3°C 93% Calm Calm -- 29.92 in1013.2 mb - 0.00 in0.0 mm 0.00 in0.0 mm
08:50 PM 75.7°F24.3°C 73.8°F23.2°C 94% Calm Calm -- 29.92 in1013.2 mb - 0.00 in0.0 mm 0.00 in0.0 mm
09:00 PM 76.0°F24.4°C 73.8°F23.2°C 93% Calm Calm -- 29.91 in1012.9 mb - 0.00 in0.0 mm 0.00 in0.0 mm
09:10 PM 75.5°F24.2°C 73.4°F23.0°C 93% 1.2 mph ESE1.9 kmh ESE 2.3 mph3.7 kmh 29.91 in1012.9 mb - 0.00 in0.0 mm 0.00 in0.0 mm
09:20 PM 75.3°F24.1°C 73.1°F22.8°C 93% Calm Calm 3.5 mph5.6 kmh 29.91 in1012.9 mb - 0.00 in0.0 mm 0.00 in0.0 mm
09:30 PM 75.6°F24.2°C 73.5°F23.1°C 93% Calm Calm -- 29.91 in1012.9 mb - 0.00 in0.0 mm 0.00 in0.0 mm
09:40 PM 75.7°F24.3°C 73.5°F23.1°C 93% 1.2 mph SE1.9 kmh SE 1.2 mph1.9 kmh 29.91 in1012.9 mb - 0.00 in0.0 mm 0.00 in0.0 mm
09:50 PM 76.0°F24.4°C 73.5°F23.1°C 92% Calm Calm 1.2 mph1.9 kmh 29.91 in1012.9 mb - 0.00 in0.0 mm 0.00 in0.0 mm
10:00 PM 76.0°F24.4°C 74.1°F23.4°C 94% 1.2 mph S1.9 kmh S 3.5 mph5.6 kmh 29.92 in1013.2 mb - 0.01 in0.3 mm 0.01 in0.3 mm
10:10 PM 75.7°F24.3°C 73.8°F23.2°C 94% 1.2 mph S1.9 kmh S 1.2 mph1.9 kmh 29.91 in1012.9 mb - 0.00 in0.0 mm 0.01 in0.3 mm
10:20 PM 75.5°F24.2°C 74.0°F23.3°C 95% 8.1 mph WSW13.0 kmh WSW 11.5 mph18.5 kmh 29.93 in1013.5 mb - 0.01 in0.3 mm 0.02 in0.5 mm
10:30 PM 74.8°F23.8°C 72.3°F22.4°C 92% 6.9 mph WSW11.1 kmh WSW 11.5 mph18.5 kmh 29.93 in1013.5 mb - 0.01 in0.3 mm 0.03 in0.8 mm
10:40 PM 74.0°F23.3°C 71.8°F22.1°C 93% 3.5 mph WSW5.6 kmh WSW 8.1 mph13.0 kmh 29.93 in1013.5 mb - 0.00 in0.0 mm 0.03 in0.8 mm
10:50 PM 73.6°F23.1°C 71.8°F22.1°C 94% 6.9 mph WSW11.1 kmh WSW 10.4 mph16.7 kmh 29.92 in1013.2 mb - 0.00 in0.0 mm 0.03 in0.8 mm
11:00 PM 73.4°F23.0°C 71.6°F22.0°C 94% 5.8 mph WSW9.3 kmh WSW 8.1 mph13.0 kmh 29.93 in1013.5 mb - 0.00 in0.0 mm 0.03 in0.8 mm
11:10 PM 73.2°F22.9°C 71.4°F21.9°C 94% 4.6 mph SW7.4 kmh SW 8.1 mph13.0 kmh 29.92 in1013.2 mb - 0.00 in0.0 mm 0.03 in0.8 mm
11:20 PM 72.9°F22.7°C 71.1°F21.7°C 94% 4.6 mph SW7.4 kmh SW 9.2 mph14.8 kmh 29.92 in1013.2 mb - 0.00 in0.0 mm 0.03 in0.8 mm
11:30 PM 72.7°F22.6°C 71.2°F21.8°C 95% 3.5 mph WSW5.6 kmh WSW 6.9 mph11.1 kmh 29.92 in1013.2 mb - 0.00 in0.0 mm 0.03 in0.8 mm
11:40 PM 72.7°F22.6°C 71.2°F21.8°C 95% 3.5 mph WSW5.6 kmh WSW 5.8 mph9.3 kmh 29.92 in1013.2 mb - 0.00 in0.0 mm 0.03 in0.8 mm
11:50 PM 72.7°F22.6°C 71.2°F21.8°C 95% 3.5 mph SW5.6 kmh SW 4.6 mph7.4 kmh 29.91 in1012.9 mb - 0.00 in0.0 mm 0.03 in0.8 mm